createdAt,value
2018-09-12T00:00:36.978Z,0.00
2018-09-12T00:01:36.966Z,0.00
2018-09-12T00:02:36.937Z,0.00
2018-09-12T00:03:36.929Z,0.00
2018-09-12T00:04:36.914Z,0.00
2018-09-12T00:05:36.899Z,0.00
2018-09-12T00:06:36.888Z,0.00
2018-09-12T00:07:36.881Z,0.00
2018-09-12T00:08:36.870Z,0.00
2018-09-12T00:09:36.861Z,0.00
2018-09-12T00:10:36.849Z,0.00
2018-09-12T00:11:36.834Z,0.00
2018-09-12T00:12:36.826Z,0.00
2018-09-12T00:13:36.811Z,0.00
2018-09-12T00:14:36.802Z,0.00
2018-09-12T00:15:36.806Z,0.00
2018-09-12T00:16:36.791Z,0.00
2018-09-12T00:17:36.770Z,0.00
2018-09-12T00:18:36.759Z,0.00
2018-09-12T00:19:36.748Z,0.00
2018-09-12T00:20:36.736Z,0.00
2018-09-12T00:21:36.724Z,0.00
2018-09-12T00:22:36.714Z,0.00
2018-09-12T00:23:36.705Z,0.00
2018-09-12T00:24:36.694Z,0.00
2018-09-12T00:25:36.682Z,0.00
2018-09-12T00:26:36.681Z,0.00
2018-09-12T00:27:36.672Z,0.00
2018-09-12T00:28:36.652Z,0.00
2018-09-12T00:29:36.641Z,0.00
2018-09-12T00:30:36.631Z,0.00
2018-09-12T00:31:36.616Z,0.00
2018-09-12T00:32:36.609Z,0.00
2018-09-12T00:33:36.594Z,0.00
2018-09-12T00:34:36.585Z,0.00
2018-09-12T00:35:36.574Z,0.00
2018-09-12T00:36:36.576Z,0.00
2018-09-12T00:37:36.551Z,0.00
2018-09-12T00:38:36.539Z,0.00
2018-09-12T00:39:36.527Z,0.00
2018-09-12T00:40:36.518Z,0.00
2018-09-12T00:41:36.515Z,0.00
2018-09-12T00:42:36.495Z,0.00
2018-09-12T00:43:36.485Z,0.00
2018-09-12T00:44:36.472Z,0.00
2018-09-12T00:45:36.463Z,0.00
2018-09-12T00:46:36.454Z,0.00
2018-09-12T00:47:36.442Z,0.00
2018-09-12T00:48:36.427Z,0.00
2018-09-12T00:49:36.418Z,0.00
2018-09-12T00:50:36.406Z,0.00
2018-09-12T00:51:36.396Z,0.00
2018-09-12T00:52:36.384Z,0.00
2018-09-12T00:53:36.373Z,0.00
2018-09-12T00:54:36.365Z,0.00
2018-09-12T00:55:36.353Z,0.00
2018-09-12T00:56:36.339Z,0.00
2018-09-12T00:57:36.328Z,0.00
2018-09-12T00:58:36.320Z,0.00
2018-09-12T00:59:36.316Z,0.00
2018-09-12T01:00:36.297Z,0.00
2018-09-12T01:01:36.288Z,0.00
2018-09-12T01:02:36.276Z,0.00
2018-09-12T01:03:36.282Z,0.00
2018-09-12T01:04:36.256Z,0.00
2018-09-12T01:05:36.244Z,0.00
2018-09-12T01:06:36.231Z,0.00
2018-09-12T01:07:36.219Z,0.00
2018-09-12T01:08:36.207Z,0.00
2018-09-12T01:09:36.198Z,0.00
2018-09-12T01:10:36.186Z,0.00
2018-09-12T01:11:36.175Z,0.00
2018-09-12T01:12:36.166Z,0.00
2018-09-12T01:13:36.157Z,0.00
2018-09-12T01:14:36.152Z,0.00
2018-09-12T01:15:36.142Z,0.00
2018-09-12T01:16:36.123Z,0.00
2018-09-12T01:17:36.115Z,0.00
2018-09-12T01:18:36.105Z,0.00
2018-09-12T01:19:36.093Z,0.00
2018-09-12T01:20:36.077Z,0.00
2018-09-12T01:21:36.071Z,0.00
2018-09-12T01:22:36.057Z,0.00
2018-09-12T01:23:36.046Z,0.00
2018-09-12T01:24:36.041Z,0.00
2018-09-12T01:25:36.023Z,0.00
2018-09-12T01:26:36.012Z,0.00
2018-09-12T01:27:36.002Z,0.00
2018-09-12T01:28:35.989Z,0.00
2018-09-12T01:38:12.765Z,0.00
2018-09-12T01:39:12.743Z,0.00
2018-09-12T01:40:12.730Z,0.00
2018-09-12T01:41:12.725Z,0.00
2018-09-12T01:42:12.709Z,0.00
2018-09-12T01:43:12.700Z,0.00
2018-09-12T01:44:12.688Z,0.00
2018-09-12T01:45:12.679Z,0.00
2018-09-12T01:46:12.681Z,0.00
2018-09-12T01:47:12.665Z,0.00
2018-09-12T01:48:12.646Z,0.00
2018-09-12T01:49:12.632Z,0.00
2018-09-12T01:50:12.620Z,0.00
2018-09-12T01:51:12.612Z,0.00
2018-09-12T01:52:12.599Z,0.00
2018-09-12T01:53:12.586Z,0.00
2018-09-12T01:54:12.578Z,0.00
2018-09-12T01:55:12.567Z,0.00
2018-09-12T01:56:12.556Z,0.00
2018-09-12T01:57:12.545Z,0.00
2018-09-12T01:58:12.535Z,0.00
2018-09-12T01:59:12.522Z,0.00
2018-09-12T02:00:12.515Z,0.00
2018-09-12T02:01:12.502Z,0.00
2018-09-12T02:02:12.491Z,0.00
2018-09-12T02:03:12.536Z,0.00
2018-09-12T02:04:12.469Z,0.00
2018-09-12T02:05:12.458Z,0.00
2018-09-12T02:06:12.445Z,0.00
2018-09-12T02:07:12.434Z,0.00
2018-09-12T02:08:12.422Z,0.00
2018-09-12T02:09:12.411Z,0.00
2018-09-12T02:10:12.402Z,0.00
2018-09-12T02:11:12.400Z,0.00
2018-09-12T02:12:12.384Z,0.00
2018-09-12T02:13:12.369Z,0.00
2018-09-12T02:14:12.359Z,0.00
2018-09-12T02:15:12.348Z,0.00
2018-09-12T02:16:12.338Z,0.00
2018-09-12T02:17:12.327Z,0.00
2018-09-12T02:18:12.317Z,0.00
2018-09-12T02:19:12.303Z,0.00
2018-09-12T02:20:12.296Z,0.00
2018-09-12T02:21:12.283Z,0.00
2018-09-12T02:22:12.272Z,0.00
2018-09-12T02:23:12.260Z,0.00
2018-09-12T02:24:12.248Z,0.00
2018-09-12T02:25:12.238Z,0.00
2018-09-12T02:26:12.226Z,0.00
2018-09-12T02:27:12.214Z,0.00
2018-09-12T02:28:12.206Z,0.00
2018-09-12T02:29:12.195Z,0.00
2018-09-12T02:30:12.183Z,0.00
2018-09-12T02:31:12.175Z,0.00
2018-09-12T02:32:12.167Z,0.00
2018-09-12T02:33:12.151Z,0.00
2018-09-12T02:34:12.142Z,0.00
2018-09-12T02:35:12.130Z,0.00
2018-09-12T02:36:12.119Z,0.00
2018-09-12T02:37:12.115Z,0.00
2018-09-12T02:38:12.101Z,0.00
2018-09-12T02:39:12.094Z,0.00
2018-09-12T02:40:12.074Z,0.00
2018-09-12T02:41:12.063Z,0.00
2018-09-12T02:42:12.055Z,0.00
2018-09-12T02:43:12.040Z,0.00
2018-09-12T02:44:12.031Z,0.00
2018-09-12T02:45:12.019Z,0.00
2018-09-12T02:46:12.008Z,0.00
2018-09-12T02:47:11.999Z,0.00
2018-09-12T02:48:11.985Z,0.00
2018-09-12T02:49:11.976Z,0.00
2018-09-12T02:50:11.964Z,0.00
2018-09-12T02:51:11.956Z,0.00
2018-09-12T02:52:11.944Z,0.00
2018-09-12T02:53:11.934Z,0.00
2018-09-12T02:54:11.922Z,0.00
2018-09-12T02:55:11.912Z,0.00
2018-09-12T02:56:11.900Z,0.00
2018-09-12T02:57:11.889Z,0.00
2018-09-12T02:58:11.878Z,0.00
2018-09-12T02:59:11.866Z,0.00
2018-09-12T03:00:11.854Z,0.00
2018-09-12T03:01:11.848Z,0.00
2018-09-12T03:02:11.835Z,0.00
2018-09-12T03:03:11.822Z,0.00
2018-09-12T03:04:11.811Z,0.00
2018-09-12T03:05:11.803Z,0.00
2018-09-12T03:06:11.790Z,0.00
2018-09-12T03:07:11.778Z,0.00
2018-09-12T03:08:11.768Z,0.00
2018-09-12T03:09:11.759Z,0.00
2018-09-12T03:10:11.765Z,0.00
2018-09-12T03:11:11.735Z,0.00
2018-09-12T03:12:11.725Z,0.00
2018-09-12T03:13:11.723Z,0.00
2018-09-12T03:14:11.703Z,0.00
2018-09-12T03:15:11.692Z,0.00
2018-09-12T03:16:11.682Z,0.00
2018-09-12T03:17:11.671Z,0.00
2018-09-12T03:18:11.658Z,0.00
2018-09-12T03:19:11.647Z,0.00
2018-09-12T03:20:11.638Z,0.00
2018-09-12T03:21:11.720Z,0.00
2018-09-12T03:22:11.620Z,0.00
2018-09-12T03:23:11.604Z,0.00
2018-09-12T03:24:11.598Z,0.00
2018-09-12T03:25:11.584Z,0.00
2018-09-12T03:26:11.572Z,0.00
2018-09-12T03:27:11.565Z,0.00
2018-09-12T03:28:11.551Z,0.00
2018-09-12T03:29:11.540Z,0.00
2018-09-12T03:30:11.531Z,0.00
2018-09-12T03:31:11.521Z,0.00
2018-09-12T03:32:11.507Z,0.00
2018-09-12T03:33:11.495Z,0.00
2018-09-12T03:34:11.485Z,0.00
2018-09-12T03:35:11.474Z,0.00
2018-09-12T03:36:11.463Z,0.00
2018-09-12T03:37:11.453Z,0.00
2018-09-12T03:38:11.441Z,0.00
2018-09-12T03:39:11.532Z,0.00
2018-09-12T03:40:11.421Z,0.00
2018-09-12T03:41:11.409Z,0.00
2018-09-12T03:42:11.402Z,0.00
2018-09-12T03:43:11.407Z,0.00
2018-09-12T03:44:11.376Z,0.00
2018-09-12T03:45:11.364Z,0.00
2018-09-12T03:46:11.352Z,0.00
2018-09-12T03:47:11.343Z,0.00
2018-09-12T03:48:11.497Z,0.00
2018-09-12T03:49:11.321Z,0.00
2018-09-12T03:50:11.310Z,0.00
2018-09-12T03:51:11.299Z,0.00
2018-09-12T03:52:11.290Z,0.00
2018-09-12T03:53:11.284Z,0.00
2018-09-12T03:54:11.270Z,0.00
2018-09-12T03:55:11.257Z,0.00
2018-09-12T03:56:11.251Z,0.00
2018-09-12T03:57:11.230Z,0.00
2018-09-12T03:58:11.224Z,0.00
2018-09-12T03:59:11.212Z,0.00
2018-09-12T04:00:11.205Z,0.00
2018-09-12T04:01:11.189Z,0.00
2018-09-12T04:02:11.178Z,0.00
2018-09-12T04:03:11.165Z,0.00
2018-09-12T04:04:11.156Z,0.00
2018-09-12T04:05:11.147Z,0.00
2018-09-12T04:06:11.134Z,0.00
2018-09-12T04:07:11.125Z,0.00
2018-09-12T04:08:11.111Z,0.00
2018-09-12T04:09:11.105Z,0.00
2018-09-12T04:10:11.093Z,0.00
2018-09-12T04:11:11.080Z,0.00
2018-09-12T04:12:11.075Z,0.00
2018-09-12T04:13:11.056Z,0.00
2018-09-12T04:14:11.047Z,0.00
2018-09-12T04:15:11.041Z,0.00
2018-09-12T04:16:11.024Z,0.00
2018-09-12T04:17:11.013Z,0.00
2018-09-12T04:18:11.004Z,0.00
2018-09-12T04:19:10.991Z,0.00
2018-09-12T04:20:10.985Z,0.00
2018-09-12T04:21:10.971Z,0.00
2018-09-12T04:22:10.959Z,0.00
2018-09-12T04:23:10.951Z,0.00
2018-09-12T04:24:10.968Z,0.00
2018-09-12T04:25:10.925Z,0.00
2018-09-12T04:26:10.917Z,4.00
2018-09-12T04:27:10.904Z,4.00
2018-09-12T04:28:10.894Z,4.00
2018-09-12T04:29:10.884Z,4.00
2018-09-12T04:30:10.873Z,4.00
2018-09-12T04:31:10.863Z,4.00
2018-09-12T04:32:10.853Z,4.00
2018-09-12T04:33:10.842Z,4.00
2018-09-12T04:34:10.831Z,8.00
2018-09-12T04:35:10.817Z,8.00
2018-09-12T04:36:10.809Z,12.00
2018-09-12T04:37:10.797Z,16.00
2018-09-12T04:38:10.786Z,16.00
2018-09-12T04:39:10.774Z,16.00
2018-09-12T04:40:10.760Z,24.00
2018-09-12T04:41:10.752Z,24.00
2018-09-12T04:42:10.741Z,32.00
2018-09-12T04:43:10.728Z,40.00
2018-09-12T04:44:10.721Z,48.00
2018-09-12T04:45:10.709Z,56.00
2018-09-12T04:46:10.694Z,64.00
2018-09-12T04:47:10.685Z,76.00
2018-09-12T04:48:10.675Z,84.00
2018-09-12T04:49:10.662Z,96.00
2018-09-12T04:50:10.653Z,108.00
2018-09-12T04:51:10.639Z,124.00
2018-09-12T04:52:10.634Z,140.00
2018-09-12T04:53:10.638Z,160.00
2018-09-12T04:54:10.606Z,176.00
2018-09-12T04:55:10.608Z,196.00
2018-09-12T04:56:10.590Z,212.00
2018-09-12T04:57:10.583Z,236.00
2018-09-12T04:58:10.566Z,256.00
2018-09-12T04:59:10.554Z,284.00
2018-09-12T05:00:10.545Z,312.00
2018-09-12T05:01:10.533Z,340.00
2018-09-12T05:02:10.525Z,364.00
2018-09-12T05:03:10.512Z,396.00
2018-09-12T05:04:10.504Z,428.00
2018-09-12T05:05:10.499Z,460.00
2018-09-12T05:06:10.476Z,496.00
2018-09-12T05:07:10.468Z,532.00
2018-09-12T05:08:10.454Z,568.00
2018-09-12T05:09:10.446Z,612.00
2018-09-12T05:10:10.461Z,648.00
2018-09-12T05:11:10.422Z,692.00
2018-09-12T05:12:10.414Z,736.00
2018-09-12T05:13:10.413Z,776.00
2018-09-12T05:14:10.389Z,828.00
2018-09-12T05:15:10.379Z,868.00
2018-09-12T05:16:10.369Z,908.00
2018-09-12T05:17:10.359Z,956.00
2018-09-12T05:18:10.347Z,1000.00
2018-09-12T05:19:10.340Z,1052.00
2018-09-12T05:20:10.327Z,1096.00
2018-09-12T05:21:10.312Z,1148.00
2018-09-12T05:22:10.302Z,1192.00
2018-09-12T05:23:10.294Z,1240.00
2018-09-12T05:24:10.288Z,1292.00
2018-09-12T05:25:10.273Z,1344.00
2018-09-12T05:26:10.258Z,1392.00
2018-09-12T05:27:10.248Z,1444.00
2018-09-12T05:28:10.235Z,1500.00
2018-09-12T05:29:10.223Z,1584.00
2018-09-12T05:30:10.215Z,2088.00
2018-09-12T05:31:10.213Z,2756.00
2018-09-12T05:32:10.192Z,2984.00
2018-09-12T05:33:10.183Z,3124.00
2018-09-12T05:34:10.172Z,3192.00
2018-09-12T05:35:10.191Z,3268.00
2018-09-12T05:36:10.196Z,3336.00
2018-09-12T05:37:10.139Z,3388.00
2018-09-12T05:38:10.133Z,3468.00
2018-09-12T05:39:10.118Z,3564.00
2018-09-12T05:40:10.104Z,3624.00
2018-09-12T05:41:10.094Z,3708.00
2018-09-12T05:42:10.083Z,3804.00
2018-09-12T05:43:10.072Z,3844.00
2018-09-12T05:44:10.062Z,3868.00
2018-09-12T05:45:10.049Z,3872.00
2018-09-12T05:46:10.038Z,3892.00
2018-09-12T05:47:10.030Z,3916.00
2018-09-12T05:48:10.016Z,3944.00
2018-09-12T05:49:10.007Z,3896.00
2018-09-12T05:50:10.009Z,3872.00
2018-09-12T05:51:09.997Z,3840.00
2018-09-12T05:52:09.978Z,3812.00
2018-09-12T05:53:09.964Z,3788.00
2018-09-12T05:54:09.951Z,3760.00
2018-09-12T05:55:09.945Z,3720.00
2018-09-12T05:56:09.932Z,3692.00
2018-09-12T05:57:09.922Z,3652.00
2018-09-12T05:58:09.911Z,3636.00
2018-09-12T05:59:09.899Z,3624.00
2018-09-12T06:00:09.888Z,3636.00
2018-09-12T06:01:09.876Z,3652.00
2018-09-12T06:02:09.864Z,3688.00
2018-09-12T06:03:09.852Z,3684.00
2018-09-12T06:04:09.843Z,3664.00
2018-09-12T06:05:09.830Z,3652.00
2018-09-12T06:06:09.822Z,3644.00
2018-09-12T06:07:10.020Z,3640.00
2018-09-12T06:08:09.798Z,3648.00
2018-09-12T06:09:09.787Z,3656.00
2018-09-12T06:10:09.778Z,3668.00
2018-09-12T06:11:09.766Z,3676.00
2018-09-12T06:12:09.754Z,3684.00
2018-09-12T06:13:09.742Z,3700.00
2018-09-12T06:14:09.824Z,3708.00
2018-09-12T06:15:09.722Z,3724.00
2018-09-12T06:16:09.710Z,3744.00
2018-09-12T06:17:09.698Z,3760.00
2018-09-12T06:18:09.688Z,3772.00
2018-09-12T06:19:09.677Z,3792.00
2018-09-12T06:20:09.667Z,3804.00
2018-09-12T06:21:09.654Z,3824.00
2018-09-12T06:22:09.644Z,3836.00
2018-09-12T06:23:09.633Z,3856.00
2018-09-12T06:24:09.621Z,3872.00
2018-09-12T06:25:09.609Z,3888.00
2018-09-12T06:26:09.611Z,3896.00
2018-09-12T06:27:09.592Z,3908.00
2018-09-12T06:28:09.579Z,3916.00
2018-09-12T06:29:09.571Z,3924.00
2018-09-12T06:30:09.557Z,3944.00
2018-09-12T06:31:09.550Z,3952.00
2018-09-12T06:32:09.547Z,3968.00
2018-09-12T06:33:09.522Z,3980.00
2018-09-12T06:34:09.517Z,4000.00
2018-09-12T06:35:09.501Z,4016.00
2018-09-12T06:36:09.491Z,4040.00
2018-09-12T06:37:09.482Z,4056.00
2018-09-12T06:38:09.471Z,4080.00
2018-09-12T06:39:09.458Z,4092.00
2018-09-12T06:40:09.451Z,4108.00
2018-09-12T06:41:09.436Z,4128.00
2018-09-12T06:42:09.425Z,4148.00
2018-09-12T06:43:09.415Z,4160.00
2018-09-12T06:44:09.405Z,4176.00
2018-09-12T06:45:09.390Z,4184.00
2018-09-12T06:46:09.487Z,4180.00
2018-09-12T06:47:09.369Z,4180.00
2018-09-12T06:48:09.357Z,4180.00
2018-09-12T06:49:09.347Z,4184.00
2018-09-12T06:50:09.339Z,4200.00
2018-09-12T06:51:09.332Z,4208.00
2018-09-12T06:52:09.319Z,4220.00
2018-09-12T06:53:09.302Z,4228.00
2018-09-12T06:54:09.298Z,4236.00
2018-09-12T06:55:09.282Z,4244.00
2018-09-12T06:56:09.270Z,4256.00
2018-09-12T06:57:09.258Z,4260.00
2018-09-12T06:58:09.246Z,4272.00
2018-09-12T06:59:09.241Z,4260.00
2018-09-12T07:00:09.227Z,4280.00
2018-09-12T07:01:09.349Z,4288.00
2018-09-12T07:02:09.221Z,4300.00
2018-09-12T07:03:09.192Z,4288.00
2018-09-12T07:04:09.190Z,4324.00
2018-09-12T07:05:09.177Z,4324.00
2018-09-12T07:06:09.162Z,4348.00
2018-09-12T07:07:09.149Z,4376.00
2018-09-12T07:08:09.138Z,4388.00
2018-09-12T07:09:09.128Z,4400.00
2018-09-12T07:10:09.118Z,4404.00
2018-09-12T07:11:09.103Z,4416.00
2018-09-12T07:12:09.094Z,4432.00
2018-09-12T07:13:09.083Z,4440.00
2018-09-12T07:14:09.094Z,4460.00
2018-09-12T07:15:09.064Z,4472.00
2018-09-12T07:16:09.048Z,4480.00
2018-09-12T07:17:09.039Z,4496.00
2018-09-12T07:18:09.027Z,4508.00
2018-09-12T07:19:09.015Z,4516.00
2018-09-12T07:20:09.009Z,4532.00
2018-09-12T07:21:08.994Z,4556.00
2018-09-12T07:22:08.984Z,4576.00
2018-09-12T07:23:08.974Z,4588.00
2018-09-12T07:24:08.963Z,4604.00
2018-09-12T07:25:08.952Z,4624.00
2018-09-12T07:26:08.943Z,4648.00
2018-09-12T07:27:08.929Z,4676.00
2018-09-12T07:28:08.920Z,4700.00
2018-09-12T07:29:08.906Z,4720.00
2018-09-12T07:30:08.897Z,4736.00
2018-09-12T07:31:08.885Z,4760.00
2018-09-12T07:32:08.875Z,4780.00
2018-09-12T07:33:08.869Z,4800.00
2018-09-12T07:34:08.851Z,4824.00
2018-09-12T07:35:08.845Z,4860.00
2018-09-12T07:36:08.832Z,4872.00
2018-09-12T07:37:08.821Z,4908.00
2018-09-12T07:38:08.810Z,4956.00
2018-09-12T07:39:08.801Z,5000.00
2018-09-12T07:40:08.787Z,5044.00
2018-09-12T07:41:08.776Z,5072.00
2018-09-12T07:42:08.767Z,5076.00
2018-09-12T07:43:08.753Z,5068.00
2018-09-12T07:44:08.744Z,5060.00
2018-09-12T07:45:08.735Z,5052.00
2018-09-12T07:46:08.722Z,5060.00
2018-09-12T07:47:08.712Z,5068.00
2018-09-12T07:48:08.703Z,5072.00
2018-09-12T07:49:08.779Z,5080.00
2018-09-12T07:50:08.678Z,5088.00
2018-09-12T07:51:08.673Z,5104.00
2018-09-12T07:52:08.656Z,5108.00
2018-09-12T07:53:08.647Z,5112.00
2018-09-12T07:54:08.637Z,5120.00
2018-09-12T07:55:08.630Z,5124.00
2018-09-12T07:56:08.628Z,5124.00
2018-09-12T07:57:08.603Z,5116.00
2018-09-12T07:58:08.590Z,5104.00
2018-09-12T07:59:08.587Z,5088.00
2018-09-12T08:00:08.601Z,5076.00
2018-09-12T08:01:08.561Z,5076.00
2018-09-12T08:02:08.548Z,5072.00
2018-09-12T08:03:08.600Z,5056.00
2018-09-12T08:04:08.526Z,5064.00
2018-09-12T08:05:08.591Z,5056.00
2018-09-12T08:06:08.505Z,5048.00
2018-09-12T08:07:08.493Z,5044.00
2018-09-12T08:08:08.482Z,5036.00
2018-09-12T08:09:08.480Z,5040.00
2018-09-12T08:10:08.461Z,5036.00
2018-09-12T08:11:08.452Z,5040.00
2018-09-12T08:12:08.500Z,5044.00
2018-09-12T08:13:08.428Z,5040.00
2018-09-12T08:14:08.417Z,5044.00
2018-09-12T08:15:08.406Z,5048.00
2018-09-12T08:16:08.396Z,5052.00
2018-09-12T08:17:08.392Z,5060.00
2018-09-12T08:18:08.375Z,5060.00
2018-09-12T08:19:08.440Z,5060.00
2018-09-12T08:20:08.352Z,5072.00
2018-09-12T08:21:08.342Z,5072.00
2018-09-12T08:22:08.332Z,5076.00
2018-09-12T08:23:08.317Z,5052.00
2018-09-12T08:24:08.310Z,5072.00
2018-09-12T08:25:08.298Z,5080.00
2018-09-12T08:26:08.345Z,5080.00
2018-09-12T08:27:08.276Z,5088.00
2018-09-12T08:28:08.269Z,5092.00
2018-09-12T08:29:08.255Z,5096.00
2018-09-12T08:30:08.242Z,5112.00
2018-09-12T08:31:08.238Z,5120.00
2018-09-12T08:32:08.227Z,5124.00
2018-09-12T08:33:08.260Z,5132.00
2018-09-12T08:34:08.203Z,5128.00
2018-09-12T08:35:08.191Z,5144.00
2018-09-12T08:36:08.181Z,5156.00
2018-09-12T08:37:08.167Z,5160.00
2018-09-12T08:38:08.156Z,5156.00
2018-09-12T08:39:08.151Z,5156.00
2018-09-12T08:40:08.164Z,5160.00
2018-09-12T08:41:08.123Z,5164.00
2018-09-12T08:42:08.145Z,5168.00
2018-09-12T08:43:08.102Z,5172.00
2018-09-12T08:44:08.095Z,5176.00
2018-09-12T08:45:08.083Z,5164.00
2018-09-12T08:46:08.074Z,5164.00
2018-09-12T08:47:08.062Z,5164.00
2018-09-12T08:48:08.051Z,5164.00
2018-09-12T08:49:08.040Z,5160.00
2018-09-12T08:50:08.027Z,5156.00
2018-09-12T08:51:08.018Z,5172.00
2018-09-12T08:52:08.008Z,5164.00
2018-09-12T08:53:07.998Z,5168.00
2018-09-12T08:54:07.984Z,5168.00
2018-09-12T08:55:07.973Z,5168.00
2018-09-12T08:56:07.966Z,5176.00
2018-09-12T08:57:07.953Z,5176.00
2018-09-12T08:58:07.946Z,5180.00
2018-09-12T08:59:07.931Z,5172.00
2018-09-12T09:00:07.952Z,5164.00
2018-09-12T09:01:07.912Z,5164.00
2018-09-12T09:02:07.897Z,5164.00
2018-09-12T09:03:07.890Z,5168.00
2018-09-12T09:04:07.937Z,5176.00
2018-09-12T09:05:07.872Z,5176.00
2018-09-12T09:06:07.857Z,5192.00
2018-09-12T09:07:07.848Z,5196.00
2018-09-12T09:08:07.834Z,5204.00
2018-09-12T09:09:07.827Z,5212.00
2018-09-12T09:10:07.813Z,5220.00
2018-09-12T09:11:07.803Z,5236.00
2018-09-12T09:12:07.792Z,5252.00
2018-09-12T09:13:07.779Z,5264.00
2018-09-12T09:14:07.777Z,5276.00
2018-09-12T09:15:07.806Z,5288.00
2018-09-12T09:16:07.750Z,5296.00
2018-09-12T09:17:07.739Z,5324.00
2018-09-12T09:18:07.726Z,5364.00
2018-09-12T09:19:07.719Z,5376.00
2018-09-12T09:20:07.710Z,5388.00
2018-09-12T09:21:07.700Z,5396.00
2018-09-12T09:22:07.685Z,5404.00
2018-09-12T09:23:07.673Z,5416.00
2018-09-12T09:24:07.663Z,5412.00
2018-09-12T09:25:07.651Z,5416.00
2018-09-12T09:26:07.640Z,5428.00
2018-09-12T09:27:07.628Z,5432.00
2018-09-12T09:28:07.619Z,5440.00
2018-09-12T09:29:07.608Z,5452.00
2018-09-12T09:30:07.595Z,5444.00
2018-09-12T09:31:07.587Z,5508.00
2018-09-12T09:32:07.575Z,5512.00
2018-09-12T09:33:07.566Z,5524.00
2018-09-12T09:34:07.554Z,5532.00
2018-09-12T09:35:07.570Z,5548.00
2018-09-12T09:36:07.532Z,5308.00
2018-09-12T09:37:07.520Z,5340.00
2018-09-12T09:38:07.513Z,5584.00
2018-09-12T09:39:07.499Z,5592.00
2018-09-12T09:40:07.492Z,5584.00
2018-09-12T09:41:07.545Z,5608.00
2018-09-12T09:42:07.468Z,5640.00
2018-09-12T09:43:07.462Z,5636.00
2018-09-12T09:44:07.622Z,5660.00
2018-09-12T09:45:07.435Z,5668.00
2018-09-12T09:46:07.425Z,5652.00
2018-09-12T09:47:07.413Z,5692.00
2018-09-12T09:48:07.520Z,5720.00
2018-09-12T09:49:07.401Z,5744.00
2018-09-12T09:50:07.378Z,5724.00
2018-09-12T09:51:07.367Z,5820.00
2018-09-12T09:52:07.357Z,5852.00
2018-09-12T09:53:07.346Z,5868.00
2018-09-12T09:54:07.338Z,5820.00
2018-09-12T09:55:07.394Z,5800.00
2018-09-12T09:56:07.317Z,5836.00
2018-09-12T09:57:07.303Z,5896.00
2018-09-12T09:58:07.296Z,5956.00
2018-09-12T09:59:07.282Z,5924.00
2018-09-12T10:00:07.272Z,5936.00
2018-09-12T10:01:07.260Z,5948.00
2018-09-12T10:02:07.250Z,5920.00
2018-09-12T10:03:07.236Z,5868.00
2018-09-12T10:04:07.232Z,5856.00
2018-09-12T10:05:07.215Z,5872.00
2018-09-12T10:06:07.209Z,5900.00
2018-09-12T10:07:07.193Z,5972.00
2018-09-12T10:08:07.183Z,5976.00
2018-09-12T10:09:07.172Z,5988.00
2018-09-12T10:10:07.166Z,5984.00
2018-09-12T10:11:07.151Z,5992.00
2018-09-12T10:12:07.139Z,6012.00
2018-09-12T10:13:07.128Z,6032.00
2018-09-12T10:14:07.118Z,6016.00
2018-09-12T10:15:07.106Z,6028.00
2018-09-12T10:16:07.094Z,6036.00
2018-09-12T10:17:07.085Z,6108.00
2018-09-12T10:18:07.073Z,6188.00
2018-09-12T10:19:07.064Z,6200.00
2018-09-12T10:20:07.059Z,6240.00
2018-09-12T10:21:07.043Z,6360.00
2018-09-12T10:22:07.040Z,6660.00
2018-09-12T10:23:07.021Z,6860.00
2018-09-12T10:24:07.014Z,7020.00
2018-09-12T10:25:06.997Z,7160.00
2018-09-12T10:26:06.988Z,7240.00
2018-09-12T10:27:06.977Z,7320.00
2018-09-12T10:28:06.966Z,7364.00
2018-09-12T10:29:06.954Z,7204.00
2018-09-12T10:30:06.945Z,7076.00
2018-09-12T10:31:06.933Z,7076.00
2018-09-12T10:32:06.924Z,7192.00
2018-09-12T10:33:06.916Z,7264.00
2018-09-12T10:34:06.900Z,7456.00
2018-09-12T10:35:06.891Z,7552.00
2018-09-12T10:36:06.879Z,7672.00
2018-09-12T10:37:06.867Z,8016.00
2018-09-12T10:38:06.858Z,8260.00
2018-09-12T10:39:06.853Z,8560.00
2018-09-12T10:40:06.838Z,8944.00
2018-09-12T10:41:06.865Z,8992.00
2018-09-12T10:42:06.813Z,9048.00
2018-09-12T10:43:06.803Z,8936.00
2018-09-12T10:44:06.794Z,8928.00
2018-09-12T10:45:06.780Z,9080.00
2018-09-12T10:46:06.771Z,9196.00
2018-09-12T10:47:06.761Z,9108.00
2018-09-12T10:48:06.748Z,8852.00
2018-09-12T10:49:06.741Z,8576.00
2018-09-12T10:50:06.730Z,8592.00
2018-09-12T10:51:06.717Z,8436.00
2018-09-12T10:52:06.707Z,8404.00
2018-09-12T10:53:06.695Z,8452.00
2018-09-12T10:54:06.683Z,8424.00
2018-09-12T10:55:06.672Z,8216.00
2018-09-12T10:56:06.662Z,7884.00
2018-09-12T10:57:06.652Z,7280.00
2018-09-12T10:58:06.640Z,6928.00
2018-09-12T10:59:06.680Z,7200.00
2018-09-12T11:00:06.621Z,7196.00
2018-09-12T11:01:06.608Z,7060.00
2018-09-12T11:02:06.595Z,4116.00
2018-09-12T11:03:06.588Z,6908.00
2018-09-12T11:04:06.577Z,6940.00
2018-09-12T11:05:06.568Z,6600.00
2018-09-12T11:06:06.554Z,6840.00
2018-09-12T11:07:06.541Z,6904.00
2018-09-12T11:08:06.532Z,6892.00
2018-09-12T11:09:06.520Z,6904.00
2018-09-12T11:10:06.511Z,6832.00
2018-09-12T11:11:06.502Z,6860.00
2018-09-12T11:12:06.491Z,6852.00
2018-09-12T11:13:06.480Z,6584.00
2018-09-12T11:14:06.467Z,6660.00
2018-09-12T11:15:06.461Z,6696.00
2018-09-12T11:16:06.444Z,6704.00
2018-09-12T11:17:06.437Z,6748.00
2018-09-12T11:18:06.425Z,6876.00
2018-09-12T11:19:06.414Z,6784.00
2018-09-12T11:20:06.404Z,6728.00
2018-09-12T11:21:06.394Z,6696.00
2018-09-12T11:22:06.381Z,6724.00
2018-09-12T11:23:06.372Z,6880.00
2018-09-12T11:24:06.443Z,6948.00
2018-09-12T11:25:06.353Z,6840.00
2018-09-12T11:26:06.341Z,6792.00
2018-09-12T11:27:06.351Z,6692.00
2018-09-12T11:28:06.316Z,6760.00
2018-09-12T11:29:06.309Z,6800.00
2018-09-12T11:30:06.299Z,6992.00
2018-09-12T11:31:06.285Z,6944.00
2018-09-12T11:32:06.273Z,7080.00
2018-09-12T11:33:06.264Z,7132.00
2018-09-12T11:34:06.281Z,7204.00
2018-09-12T11:35:06.246Z,7204.00
2018-09-12T11:36:06.233Z,7380.00
2018-09-12T11:37:06.220Z,7424.00
2018-09-12T11:38:06.241Z,7224.00
2018-09-12T11:39:06.201Z,7308.00
2018-09-12T11:40:06.254Z,7348.00
2018-09-12T11:41:06.176Z,7392.00
2018-09-12T11:42:06.168Z,7544.00
2018-09-12T11:43:06.154Z,7612.00
2018-09-12T11:44:06.144Z,7536.00
2018-09-12T11:45:06.132Z,7576.00
2018-09-12T11:46:06.123Z,7720.00
2018-09-12T11:47:06.113Z,7624.00
2018-09-12T11:48:06.101Z,7384.00
2018-09-12T11:49:06.128Z,7108.00
2018-09-12T11:50:06.082Z,6992.00
2018-09-12T11:51:06.071Z,6920.00
2018-09-12T11:52:06.057Z,6908.00
2018-09-12T11:53:06.050Z,7168.00
2018-09-12T11:54:06.077Z,7316.00
2018-09-12T11:55:06.026Z,7252.00
2018-09-12T11:56:06.015Z,7208.00
2018-09-12T11:57:06.002Z,7112.00
2018-09-12T11:58:05.993Z,7016.00
2018-09-12T11:59:05.983Z,6924.00
2018-09-12T12:00:05.969Z,7112.00
2018-09-12T12:01:05.962Z,7148.00
2018-09-12T12:02:05.954Z,6992.00
2018-09-12T12:03:05.937Z,7016.00
2018-09-12T12:04:05.929Z,7064.00
2018-09-12T12:05:05.917Z,7052.00
2018-09-12T12:06:05.946Z,7212.00
2018-09-12T12:07:05.897Z,7340.00
2018-09-12T12:08:05.888Z,7428.00
2018-09-12T12:09:05.879Z,7312.00
2018-09-12T12:10:05.865Z,7172.00
2018-09-12T12:11:05.852Z,7180.00
2018-09-12T12:12:05.843Z,7060.00
2018-09-12T12:13:05.833Z,7012.00
2018-09-12T12:14:05.825Z,7064.00
2018-09-12T12:15:05.810Z,7184.00
2018-09-12T12:16:05.799Z,7208.00
2018-09-12T12:17:05.793Z,7200.00
2018-09-12T12:18:05.779Z,7188.00
2018-09-12T12:19:05.774Z,7084.00
2018-09-12T12:20:05.759Z,7016.00
2018-09-12T12:21:05.747Z,6752.00
2018-09-12T12:22:05.740Z,6592.00
2018-09-12T12:23:05.739Z,6460.00
2018-09-12T12:24:05.767Z,6444.00
2018-09-12T12:25:05.754Z,6460.00
2018-09-12T12:26:05.735Z,6436.00
2018-09-12T12:27:05.719Z,6420.00
2018-09-12T12:28:05.755Z,6420.00
2018-09-12T12:29:05.660Z,6404.00
2018-09-12T12:30:05.690Z,6340.00
2018-09-12T12:31:05.676Z,6244.00
2018-09-12T12:32:05.665Z,6216.00
2018-09-12T12:33:05.707Z,6212.00
2018-09-12T12:34:05.642Z,6240.00
2018-09-12T12:35:05.639Z,6244.00
2018-09-12T12:36:05.630Z,6292.00
2018-09-12T12:37:05.578Z,6260.00
2018-09-12T12:38:05.565Z,6280.00
2018-09-12T12:39:05.556Z,6328.00
2018-09-12T12:40:05.543Z,6368.00